sensor_id;sensor_type;location;lat;lon;timestamp;pressure;altitude;pressure_sealevel;temperature;humidity
68141;BME280;54941;52.220;104.306;2023-04-06T00:01:57;97276.72;;;0.50;40.67
68141;BME280;54941;52.220;104.306;2023-04-06T00:04:23;97275.19;;;0.90;39.31
68141;BME280;54941;52.220;104.306;2023-04-06T00:06:50;97272.25;;;1.87;37.53
68141;BME280;54941;52.220;104.306;2023-04-06T00:09:17;97263.97;;;3.58;34.87
68141;BME280;54941;52.220;104.306;2023-04-06T00:11:45;97269.66;;;3.42;35.29
68141;BME280;54941;52.220;104.306;2023-04-06T00:14:11;97274.66;;;4.53;32.46
68141;BME280;54941;52.220;104.306;2023-04-06T00:16:38;97266.31;;;6.90;29.57
68141;BME280;54941;52.220;104.306;2023-04-06T00:19:04;97265.63;;;6.47;28.86
68141;BME280;54941;52.220;104.306;2023-04-06T00:21:31;97262.50;;;5.85;30.25
68141;BME280;54941;52.220;104.306;2023-04-06T00:24:00;97254.81;;;6.11;29.05
68141;BME280;54941;52.220;104.306;2023-04-06T00:26:27;97254.97;;;6.76;28.68
68141;BME280;54941;52.220;104.306;2023-04-06T00:28:54;97256.47;;;5.61;29.71
68141;BME280;54941;52.220;104.306;2023-04-06T00:31:23;97250.25;;;7.44;27.75
68141;BME280;54941;52.220;104.306;2023-04-06T00:33:50;97247.47;;;7.70;26.61
68141;BME280;54941;52.220;104.306;2023-04-06T00:36:16;97245.72;;;8.48;26.33
68141;BME280;54941;52.220;104.306;2023-04-06T00:38:42;97241.94;;;10.51;24.61
68141;BME280;54941;52.220;104.306;2023-04-06T00:41:09;97229.44;;;8.25;26.64
68141;BME280;54941;52.220;104.306;2023-04-06T00:43:35;97230.06;;;7.57;27.59
68141;BME280;54941;52.220;104.306;2023-04-06T00:46:03;97232.41;;;8.45;26.63
68141;BME280;54941;52.220;104.306;2023-04-06T00:48:29;97234.03;;;9.06;25.73
68141;BME280;54941;52.220;104.306;2023-04-06T00:50:56;97231.34;;;9.22;25.00
68141;BME280;54941;52.220;104.306;2023-04-06T00:53:23;97228.09;;;10.73;23.83
68141;BME280;54941;52.220;104.306;2023-04-06T00:55:49;97227.03;;;11.38;23.09
68141;BME280;54941;52.220;104.306;2023-04-06T00:58:18;97231.50;;;13.19;20.99
68141;BME280;54941;52.220;104.306;2023-04-06T01:00:44;97224.69;;;11.43;22.31
68141;BME280;54941;52.220;104.306;2023-04-06T01:03:12;97222.34;;;11.48;22.44
68141;BME280;54941;52.220;104.306;2023-04-06T01:05:39;97216.94;;;11.43;22.67
68141;BME280;54941;52.220;104.306;2023-04-06T01:08:05;97223.84;;;11.63;22.29
68141;BME280;54941;52.220;104.306;2023-04-06T01:10:31;97218.19;;;12.35;21.56
68141;BME280;54941;52.220;104.306;2023-04-06T01:12:58;97219.47;;;12.72;21.14
68141;BME280;54941;52.220;104.306;2023-04-06T01:15:25;97206.31;;;13.65;20.76
68141;BME280;54941;52.220;104.306;2023-04-06T01:17:54;97214.66;;;13.81;19.64
68141;BME280;54941;52.220;104.306;2023-04-06T01:20:22;97205.28;;;11.53;22.46
68141;BME280;54941;52.220;104.306;2023-04-06T01:22:50;97190.16;;;11.78;21.39
68141;BME280;54941;52.220;104.306;2023-04-06T01:25:16;97196.88;;;12.20;20.98
68141;BME280;54941;52.220;104.306;2023-04-06T01:27:43;97197.56;;;12.61;20.42
68141;BME280;54941;52.220;104.306;2023-04-06T01:30:10;97192.53;;;15.17;18.40
68141;BME280;54941;52.220;104.306;2023-04-06T01:32:36;97189.22;;;14.09;19.04
68141;BME280;54941;52.220;104.306;2023-04-06T01:35:03;97192.06;;;13.30;19.72
68141;BME280;54941;52.220;104.306;2023-04-06T01:37:29;97189.84;;;13.40;19.12
68141;BME280;54941;52.220;104.306;2023-04-06T01:39:57;97178.94;;;14.27;18.88
68141;BME280;54941;52.220;104.306;2023-04-06T01:42:23;97189.84;;;13.27;19.25
68141;BME280;54941;52.220;104.306;2023-04-06T01:44:52;97187.41;;;12.40;20.76
68141;BME280;54941;52.220;104.306;2023-04-06T01:47:18;97182.69;;;13.16;19.22
68141;BME280;54941;52.220;104.306;2023-04-06T01:49:45;97176.09;;;13.33;19.42
68141;BME280;54941;52.220;104.306;2023-04-06T01:52:11;97174.06;;;12.56;19.90
68141;BME280;54941;52.220;104.306;2023-04-06T01:54:39;97172.41;;;13.74;19.12
68141;BME280;54941;52.220;104.306;2023-04-06T01:57:07;97165.66;;;14.55;18.86
68141;BME280;54941;52.220;104.306;2023-04-06T01:59:33;97164.94;;;13.33;18.66
68141;BME280;54941;52.220;104.306;2023-04-06T02:01:59;97158.47;;;12.04;20.28
68141;BME280;54941;52.220;104.306;2023-04-06T02:04:26;97156.72;;;13.62;18.93
68141;BME280;54941;52.220;104.306;2023-04-06T02:06:52;97147.44;;;14.61;18.48
68141;BME280;54941;52.220;104.306;2023-04-06T02:09:19;97146.81;;;13.39;18.61
68141;BME280;54941;52.220;104.306;2023-04-06T02:11:45;97148.97;;;13.55;18.55
68141;BME280;54941;52.220;104.306;2023-04-06T02:14:13;97130.47;;;13.96;18.78
68141;BME280;54941;52.220;104.306;2023-04-06T02:16:39;97123.44;;;11.95;19.43
68141;BME280;54941;52.220;104.306;2023-04-06T02:19:06;97126.31;;;12.26;20.02
68141;BME280;54941;52.220;104.306;2023-04-06T02:21:32;97120.53;;;13.29;18.58
68141;BME280;54941;52.220;104.306;2023-04-06T02:23:59;97113.38;;;13.25;18.70
68141;BME280;54941;52.220;104.306;2023-04-06T02:26:25;97115.16;;;13.31;18.51
68141;BME280;54941;52.220;104.306;2023-04-06T02:28:51;97100.69;;;12.44;19.34
68141;BME280;54941;52.220;104.306;2023-04-06T02:31:19;97085.78;;;11.59;19.89
68141;BME280;54941;52.220;104.306;2023-04-06T02:33:46;97094.47;;;12.12;19.27
68141;BME280;54941;52.220;104.306;2023-04-06T02:36:12;97094.31;;;13.63;18.23
68141;BME280;54941;52.220;104.306;2023-04-06T02:38:38;97095.34;;;14.00;18.00
68141;BME280;54941;52.220;104.306;2023-04-06T02:41:05;97076.19;;;12.27;19.74
68141;BME280;54941;52.220;104.306;2023-04-06T02:43:32;97078.19;;;15.41;16.83
68141;BME280;54941;52.220;104.306;2023-04-06T02:45:58;97064.94;;;15.13;16.79
68141;BME280;54941;52.220;104.306;2023-04-06T02:48:26;97074.03;;;15.58;16.81
68141;BME280;54941;52.220;104.306;2023-04-06T02:50:52;97070.56;;;14.42;17.87
68141;BME280;54941;52.220;104.306;2023-04-06T02:53:21;97058.84;;;14.83;16.89
68141;BME280;54941;52.220;104.306;2023-04-06T02:55:48;97057.38;;;15.30;16.85
68141;BME280;54941;52.220;104.306;2023-04-06T02:58:14;97055.25;;;14.84;16.91
68141;BME280;54941;52.220;104.306;2023-04-06T03:00:40;97048.22;;;14.10;18.24
68141;BME280;54941;52.220;104.306;2023-04-06T03:03:07;97045.44;;;15.04;18.00
68141;BME280;54941;52.220;104.306;2023-04-06T03:05:37;97043.22;;;15.07;16.89
68141;BME280;54941;52.220;104.306;2023-04-06T03:08:04;97035.19;;;13.92;18.25
68141;BME280;54941;52.220;104.306;2023-04-06T03:10:30;97035.84;;;14.43;17.86
68141;BME280;54941;52.220;104.306;2023-04-06T03:12:56;97028.63;;;15.61;16.93
68141;BME280;54941;52.220;104.306;2023-04-06T03:16:21;65906.28;;;-142.07;100.00
68141;BME280;54941;52.220;104.306;2023-04-06T03:19:46;65906.28;;;-142.07;100.00
68141;BME280;54941;52.220;104.306;2023-04-06T03:23:13;65906.28;;;-142.07;100.00
68141;BME280;54941;52.220;104.306;2023-04-06T03:25:48;65906.28;;;-142.07;100.00
68141;BME280;54941;52.220;104.306;2023-04-06T03:28:14;97008.78;;;16.31;17.62
68141;BME280;54941;52.220;104.306;2023-04-06T03:30:41;97004.59;;;17.00;16.04
68141;BME280;54941;52.220;104.306;2023-04-06T03:34:06;65906.28;;;-142.07;100.00
68141;BME280;54941;52.220;104.306;2023-04-06T03:37:32;65906.28;;;-142.07;100.00
68141;BME280;54941;52.220;104.306;2023-04-06T03:40:57;65906.28;;;-142.07;100.00
68141;BME280;54941;52.220;104.306;2023-04-06T03:44:22;65906.28;;;-142.07;100.00
68141;BME280;54941;52.220;104.306;2023-04-06T03:47:47;65906.28;;;-142.07;100.00
68141;BME280;54941;52.220;104.306;2023-04-06T03:51:14;65906.28;;;-142.07;100.00
68141;BME280;54941;52.220;104.306;2023-04-06T03:54:44;65906.28;;;-142.07;100.00
68141;BME280;54941;52.220;104.306;2023-04-06T03:58:09;65906.28;;;-142.07;100.00
68141;BME280;54941;52.220;104.306;2023-04-06T04:01:37;65906.28;;;-142.07;100.00
68141;BME280;54941;52.220;104.306;2023-04-06T04:05:02;65906.28;;;-142.07;100.00
68141;BME280;54941;52.220;104.306;2023-04-06T04:08:30;65906.28;;;-142.07;100.00
68141;BME280;54941;52.220;104.306;2023-04-06T04:11:57;65906.28;;;-142.07;100.00
68141;BME280;54941;52.220;104.306;2023-04-06T04:15:22;65906.28;;;-142.07;100.00
68141;BME280;54941;52.220;104.306;2023-04-06T04:18:23;65906.28;;;-142.07;100.00
68141;BME280;54941;52.220;104.306;2023-04-06T04:21:11;65906.28;;;-142.07;100.00
68141;BME280;54941;52.220;104.306;2023-04-06T04:23:37;65906.28;;;-142.07;100.00
68141;BME280;54941;52.220;104.306;2023-04-06T04:26:05;65906.28;;;-142.07;100.00
68141;BME280;54941;52.220;104.306;2023-04-06T04:28:48;65906.28;;;-142.07;100.00
68141;BME280;54941;52.220;104.306;2023-04-06T04:31:15;65906.28;;;-142.07;100.00
68141;BME280;54941;52.220;104.306;2023-04-06T04:33:45;65906.28;;;-142.07;100.00
68141;BME280;54941;52.220;104.306;2023-04-06T04:36:18;65906.28;;;-142.07;100.00
68141;BME280;54941;52.220;104.306;2023-04-06T04:39:04;65906.28;;;-142.07;100.00
68141;BME280;54941;52.220;104.306;2023-04-06T04:41:52;65906.28;;;-142.07;100.00
68141;BME280;54941;52.220;104.306;2023-04-06T04:45:08;65906.28;;;-142.07;100.00
68141;BME280;54941;52.220;104.306;2023-04-06T04:48:33;65906.28;;;-142.07;100.00
68141;BME280;54941;52.220;104.306;2023-04-06T04:51:35;65906.28;;;-142.07;100.00
68141;BME280;54941;52.220;104.306;2023-04-06T04:54:01;65906.28;;;-142.07;100.00
68141;BME280;54941;52.220;104.306;2023-04-06T04:56:55;65906.28;;;-142.07;100.00
68141;BME280;54941;52.220;104.306;2023-04-06T04:59:21;65906.28;;;-142.07;100.00
68141;BME280;54941;52.220;104.306;2023-04-06T05:01:47;65906.28;;;-142.07;100.00
68141;BME280;54941;52.220;104.306;2023-04-06T05:04:14;65906.28;;;-142.07;100.00
68141;BME280;54941;52.220;104.306;2023-04-06T05:06:42;65906.28;;;-142.07;100.00
68141;BME280;54941;52.220;104.306;2023-04-06T05:09:09;65906.28;;;-142.07;100.00
68141;BME280;54941;52.220;104.306;2023-04-06T05:11:38;65906.28;;;-142.07;100.00
68141;BME280;54941;52.220;104.306;2023-04-06T05:14:06;65906.28;;;-142.07;100.00
68141;BME280;54941;52.220;104.306;2023-04-06T05:16:35;65906.28;;;-142.07;100.00
68141;BME280;54941;52.220;104.306;2023-04-06T05:19:01;65906.28;;;-142.07;100.00
68141;BME280;54941;52.220;104.306;2023-04-06T05:21:31;65906.28;;;-142.07;100.00
68141;BME280;54941;52.220;104.306;2023-04-06T05:23:57;65906.28;;;-142.07;100.00
68141;BME280;54941;52.220;104.306;2023-04-06T05:26:24;65906.28;;;-142.07;100.00
68141;BME280;54941;52.220;104.306;2023-04-06T05:28:53;65906.28;;;-142.07;100.00
68141;BME280;54941;52.220;104.306;2023-04-06T05:31:21;65906.28;;;-142.07;100.00
68141;BME280;54941;52.220;104.306;2023-04-06T05:33:47;65906.28;;;-142.07;100.00
68141;BME280;54941;52.220;104.306;2023-04-06T05:36:15;65906.28;;;-142.07;100.00
68141;BME280;54941;52.220;104.306;2023-04-06T05:38:42;65906.28;;;-142.07;100.00
68141;BME280;54941;52.220;104.306;2023-04-06T05:41:08;65906.28;;;-142.07;100.00
68141;BME280;54941;52.220;104.306;2023-04-06T05:43:35;65906.28;;;-142.07;100.00
68141;BME280;54941;52.220;104.306;2023-04-06T05:46:02;65906.28;;;-142.07;100.00
68141;BME280;54941;52.220;104.306;2023-04-06T05:48:30;65906.28;;;-142.07;100.00
68141;BME280;54941;52.220;104.306;2023-04-06T05:50:56;65906.28;;;-142.07;100.00
68141;BME280;54941;52.220;104.306;2023-04-06T05:53:27;65906.28;;;-142.07;100.00
68141;BME280;54941;52.220;104.306;2023-04-06T05:55:55;65906.28;;;-142.07;100.00
68141;BME280;54941;52.220;104.306;2023-04-06T05:58:23;65906.28;;;-142.07;100.00
68141;BME280;54941;52.220;104.306;2023-04-06T06:00:50;65906.28;;;-142.07;100.00
68141;BME280;54941;52.220;104.306;2023-04-06T06:03:16;65906.28;;;-142.07;100.00
68141;BME280;54941;52.220;104.306;2023-04-06T06:05:44;65906.28;;;-142.07;100.00
68141;BME280;54941;52.220;104.306;2023-04-06T06:08:10;65906.28;;;-142.07;100.00
68141;BME280;54941;52.220;104.306;2023-04-06T06:10:38;65906.28;;;-142.07;100.00
68141;BME280;54941;52.220;104.306;2023-04-06T06:13:05;65906.28;;;-142.07;100.00
68141;BME280;54941;52.220;104.306;2023-04-06T06:15:31;65906.28;;;-142.07;100.00
68141;BME280;54941;52.220;104.306;2023-04-06T06:17:57;65906.28;;;-142.07;100.00
68141;BME280;54941;52.220;104.306;2023-04-06T06:20:24;65906.28;;;-142.07;100.00
68141;BME280;54941;52.220;104.306;2023-04-06T06:23:53;65906.28;;;-142.07;100.00
68141;BME280;54941;52.220;104.306;2023-04-06T06:26:34;65906.28;;;-142.07;100.00
68141;BME280;54941;52.220;104.306;2023-04-06T06:29:00;65906.28;;;-142.07;100.00
68141;BME280;54941;52.220;104.306;2023-04-06T06:31:26;65906.28;;;-142.07;100.00
68141;BME280;54941;52.220;104.306;2023-04-06T06:33:53;65906.28;;;-142.07;100.00
68141;BME280;54941;52.220;104.306;2023-04-06T06:36:19;65906.28;;;-142.07;100.00
68141;BME280;54941;52.220;104.306;2023-04-06T06:38:47;65906.28;;;-142.07;100.00
68141;BME280;54941;52.220;104.306;2023-04-06T06:41:13;65906.28;;;-142.07;100.00
68141;BME280;54941;52.220;104.306;2023-04-06T06:43:40;65906.28;;;-142.07;100.00
68141;BME280;54941;52.220;104.306;2023-04-06T06:46:06;65906.28;;;-142.07;100.00
68141;BME280;54941;52.220;104.306;2023-04-06T06:48:32;65906.28;;;-142.07;100.00
68141;BME280;54941;52.220;104.306;2023-04-06T06:51:02;65906.28;;;-142.07;100.00
68141;BME280;54941;52.220;104.306;2023-04-06T06:53:29;65906.28;;;-142.07;100.00
68141;BME280;54941;52.220;104.306;2023-04-06T06:55:57;65906.28;;;-142.07;100.00
68141;BME280;54941;52.220;104.306;2023-04-06T06:58:23;65906.28;;;-142.07;100.00
68141;BME280;54941;52.220;104.306;2023-04-06T07:00:49;65906.28;;;-142.07;100.00
68141;BME280;54941;52.220;104.306;2023-04-06T07:03:16;65906.28;;;-142.07;100.00
68141;BME280;54941;52.220;104.306;2023-04-06T07:05:45;65906.28;;;-142.07;100.00
68141;BME280;54941;52.220;104.306;2023-04-06T07:08:12;65906.28;;;-142.07;100.00
68141;BME280;54941;52.220;104.306;2023-04-06T07:10:38;65906.28;;;-142.07;100.00
68141;BME280;54941;52.220;104.306;2023-04-06T07:13:06;65906.28;;;-142.07;100.00
68141;BME280;54941;52.220;104.306;2023-04-06T07:15:32;65906.28;;;-142.07;100.00
68141;BME280;54941;52.220;104.306;2023-04-06T07:17:59;65906.28;;;-142.07;100.00
68141;BME280;54941;52.220;104.306;2023-04-06T07:20:25;65906.28;;;-142.07;100.00
68141;BME280;54941;52.220;104.306;2023-04-06T07:22:51;65906.28;;;-142.07;100.00
68141;BME280;54941;52.220;104.306;2023-04-06T07:25:18;65906.28;;;-142.07;100.00
68141;BME280;54941;52.220;104.306;2023-04-06T07:27:46;65906.28;;;-142.07;100.00
68141;BME280;54941;52.220;104.306;2023-04-06T07:30:14;65906.28;;;-142.07;100.00
68141;BME280;54941;52.220;104.306;2023-04-06T07:32:41;65906.28;;;-142.07;100.00
68141;BME280;54941;52.220;104.306;2023-04-06T07:35:07;65906.28;;;-142.07;100.00
68141;BME280;54941;52.220;104.306;2023-04-06T07:37:34;65906.28;;;-142.07;100.00
68141;BME280;54941;52.220;104.306;2023-04-06T07:40:00;65906.28;;;-142.07;100.00
68141;BME280;54941;52.220;104.306;2023-04-06T07:42:26;65906.28;;;-142.07;100.00
68141;BME280;54941;52.220;104.306;2023-04-06T07:44:53;65906.28;;;-142.07;100.00
68141;BME280;54941;52.220;104.306;2023-04-06T07:47:21;65906.28;;;-142.07;100.00
68141;BME280;54941;52.220;104.306;2023-04-06T07:49:47;65906.28;;;-142.07;100.00
68141;BME280;54941;52.220;104.306;2023-04-06T07:52:13;65906.28;;;-142.07;100.00
68141;BME280;54941;52.220;104.306;2023-04-06T07:54:40;65906.28;;;-142.07;100.00
68141;BME280;54941;52.220;104.306;2023-04-06T07:57:07;65906.28;;;-142.07;100.00
68141;BME280;54941;52.220;104.306;2023-04-06T07:59:33;65906.28;;;-142.07;100.00
68141;BME280;54941;52.220;104.306;2023-04-06T08:02:00;65906.28;;;-142.07;100.00
68141;BME280;54941;52.220;104.306;2023-04-06T08:04:27;65906.28;;;-142.07;100.00
68141;BME280;54941;52.220;104.306;2023-04-06T08:06:54;65906.28;;;-142.07;100.00
68141;BME280;54941;52.220;104.306;2023-04-06T08:09:20;65906.28;;;-142.07;100.00
68141;BME280;54941;52.220;104.306;2023-04-06T08:11:46;65906.28;;;-142.07;100.00
68141;BME280;54941;52.220;104.306;2023-04-06T08:14:13;65906.28;;;-142.07;100.00
68141;BME280;54941;52.220;104.306;2023-04-06T08:16:39;65906.28;;;-142.07;100.00
68141;BME280;54941;52.220;104.306;2023-04-06T08:19:05;65906.28;;;-142.07;100.00
68141;BME280;54941;52.220;104.306;2023-04-06T08:21:33;65906.28;;;-142.07;100.00
68141;BME280;54941;52.220;104.306;2023-04-06T08:24:03;65906.28;;;-142.07;100.00
68141;BME280;54941;52.220;104.306;2023-04-06T08:26:29;65906.28;;;-142.07;100.00
68141;BME280;54941;52.220;104.306;2023-04-06T08:28:55;65906.28;;;-142.07;100.00
68141;BME280;54941;52.220;104.306;2023-04-06T08:31:22;65906.28;;;-142.07;100.00
68141;BME280;54941;52.220;104.306;2023-04-06T08:33:50;65906.28;;;-142.07;100.00
68141;BME280;54941;52.220;104.306;2023-04-06T08:36:16;65906.28;;;-142.07;100.00
68141;BME280;54941;52.220;104.306;2023-04-06T08:38:44;65906.28;;;-142.07;100.00
68141;BME280;54941;52.220;104.306;2023-04-06T08:41:12;65906.28;;;-142.07;100.00
68141;BME280;54941;52.220;104.306;2023-04-06T08:43:42;65906.28;;;-142.07;100.00
68141;BME280;54941;52.220;104.306;2023-04-06T08:46:10;65906.28;;;-142.07;100.00
68141;BME280;54941;52.220;104.306;2023-04-06T08:48:37;65906.28;;;-142.07;100.00
68141;BME280;54941;52.220;104.306;2023-04-06T08:51:04;65906.28;;;-142.07;100.00
68141;BME280;54941;52.220;104.306;2023-04-06T08:53:31;65906.28;;;-142.07;100.00
68141;BME280;54941;52.220;104.306;2023-04-06T08:55:59;65906.28;;;-142.07;100.00
68141;BME280;54941;52.220;104.306;2023-04-06T08:58:28;65906.28;;;-142.07;100.00
68141;BME280;54941;52.220;104.306;2023-04-06T09:00:59;65906.28;;;-142.07;100.00
68141;BME280;54941;52.220;104.306;2023-04-06T09:03:26;65906.28;;;-142.07;100.00
68141;BME280;54941;52.220;104.306;2023-04-06T09:05:54;65906.28;;;-142.07;100.00
68141;BME280;54941;52.220;104.306;2023-04-06T09:08:20;65906.28;;;-142.07;100.00
68141;BME280;54941;52.220;104.306;2023-04-06T09:10:48;65906.28;;;-142.07;100.00
68141;BME280;54941;52.220;104.306;2023-04-06T09:13:16;65906.28;;;-142.07;100.00
68141;BME280;54941;52.220;104.306;2023-04-06T09:15:42;65906.28;;;-142.07;100.00
68141;BME280;54941;52.220;104.306;2023-04-06T09:18:09;65906.28;;;-142.07;100.00
68141;BME280;54941;52.220;104.306;2023-04-06T09:20:35;65906.28;;;-142.07;100.00
68141;BME280;54941;52.220;104.306;2023-04-06T09:23:02;65906.28;;;-142.07;100.00
68141;BME280;54941;52.220;104.306;2023-04-06T09:25:31;65906.28;;;-142.07;100.00
68141;BME280;54941;52.220;104.306;2023-04-06T09:28:02;65906.28;;;-142.07;100.00
68141;BME280;54941;52.220;104.306;2023-04-06T09:30:30;65906.28;;;-142.07;100.00
68141;BME280;54941;52.220;104.306;2023-04-06T09:32:57;65906.28;;;-142.07;100.00
68141;BME280;54941;52.220;104.306;2023-04-06T09:35:24;65906.28;;;-142.07;100.00
68141;BME280;54941;52.220;104.306;2023-04-06T09:37:51;65906.28;;;-142.07;100.00
68141;BME280;54941;52.220;104.306;2023-04-06T09:40:19;65906.28;;;-142.07;100.00
68141;BME280;54941;52.220;104.306;2023-04-06T09:42:46;65906.28;;;-142.07;100.00
68141;BME280;54941;52.220;104.306;2023-04-06T09:45:13;65906.28;;;-142.07;100.00
68141;BME280;54941;52.220;104.306;2023-04-06T09:47:43;65906.28;;;-142.07;100.00
68141;BME280;54941;52.220;104.306;2023-04-06T09:50:11;65906.28;;;-142.07;100.00
68141;BME280;54941;52.220;104.306;2023-04-06T09:52:47;65906.28;;;-142.07;100.00
68141;BME280;54941;52.220;104.306;2023-04-06T09:55:15;65906.28;;;-142.07;100.00
68141;BME280;54941;52.220;104.306;2023-04-06T09:57:47;65906.28;;;-142.07;100.00
68141;BME280;54941;52.220;104.306;2023-04-06T10:00:17;65906.28;;;-142.07;100.00
68141;BME280;54941;52.220;104.306;2023-04-06T10:02:55;65906.28;;;-142.07;100.00
68141;BME280;54941;52.220;104.306;2023-04-06T10:05:30;65906.28;;;-142.07;100.00
68141;BME280;54941;52.220;104.306;2023-04-06T10:08:03;65906.28;;;-142.07;100.00
68141;BME280;54941;52.220;104.306;2023-04-06T10:10:31;65906.28;;;-142.07;100.00
68141;BME280;54941;52.220;104.306;2023-04-06T10:13:00;65906.28;;;-142.07;100.00
68141;BME280;54941;52.220;104.306;2023-04-06T10:15:28;65906.28;;;-142.07;100.00
68141;BME280;54941;52.220;104.306;2023-04-06T10:18:14;65906.28;;;-142.07;100.00
68141;BME280;54941;52.220;104.306;2023-04-06T10:21:01;65906.28;;;-142.07;100.00
68141;BME280;54941;52.220;104.306;2023-04-06T10:23:51;65906.28;;;-142.07;100.00
68141;BME280;54941;52.220;104.306;2023-04-06T10:26:41;65906.28;;;-142.07;100.00
68141;BME280;54941;52.220;104.306;2023-04-06T10:29:15;65906.28;;;-142.07;100.00
68141;BME280;54941;52.220;104.306;2023-04-06T10:31:42;65906.28;;;-142.07;100.00
68141;BME280;54941;52.220;104.306;2023-04-06T10:34:10;65906.28;;;-142.07;100.00
68141;BME280;54941;52.220;104.306;2023-04-06T10:36:36;65906.28;;;-142.07;100.00
68141;BME280;54941;52.220;104.306;2023-04-06T10:39:04;65906.28;;;-142.07;100.00
68141;BME280;54941;52.220;104.306;2023-04-06T10:41:34;65906.28;;;-142.07;100.00
68141;BME280;54941;52.220;104.306;2023-04-06T10:44:01;65906.28;;;-142.07;100.00
68141;BME280;54941;52.220;104.306;2023-04-06T10:46:28;65906.28;;;-142.07;100.00
68141;BME280;54941;52.220;104.306;2023-04-06T10:48:57;65906.28;;;-142.07;100.00
68141;BME280;54941;52.220;104.306;2023-04-06T10:51:27;65906.28;;;-142.07;100.00
68141;BME280;54941;52.220;104.306;2023-04-06T10:53:58;65906.28;;;-142.07;100.00
68141;BME280;54941;52.220;104.306;2023-04-06T10:56:25;65906.28;;;-142.07;100.00
68141;BME280;54941;52.220;104.306;2023-04-06T10:58:53;65906.28;;;-142.07;100.00
68141;BME280;54941;52.220;104.306;2023-04-06T11:01:21;65906.28;;;-142.07;100.00
68141;BME280;54941;52.220;104.306;2023-04-06T11:03:49;65906.28;;;-142.07;100.00
68141;BME280;54941;52.220;104.306;2023-04-06T11:06:19;65906.28;;;-142.07;100.00
68141;BME280;54941;52.220;104.306;2023-04-06T11:08:47;65906.28;;;-142.07;100.00
68141;BME280;54941;52.220;104.306;2023-04-06T11:11:15;65906.28;;;-142.07;100.00
68141;BME280;54941;52.220;104.306;2023-04-06T11:13:43;65906.28;;;-142.07;100.00
68141;BME280;54941;52.220;104.306;2023-04-06T11:16:14;65906.28;;;-142.07;100.00
68141;BME280;54941;52.220;104.306;2023-04-06T11:18:49;65906.28;;;-142.07;100.00
68141;BME280;54941;52.220;104.306;2023-04-06T11:21:16;65906.28;;;-142.07;100.00
68141;BME280;54941;52.220;104.306;2023-04-06T11:23:42;65906.28;;;-142.07;100.00
68141;BME280;54941;52.220;104.306;2023-04-06T11:26:15;65906.28;;;-142.07;100.00
68141;BME280;54941;52.220;104.306;2023-04-06T11:28:41;65906.28;;;-142.07;100.00
68141;BME280;54941;52.220;104.306;2023-04-06T11:31:09;65906.28;;;-142.07;100.00
68141;BME280;54941;52.220;104.306;2023-04-06T11:33:36;65906.28;;;-142.07;100.00
68141;BME280;54941;52.220;104.306;2023-04-06T11:36:02;65906.28;;;-142.07;100.00
68141;BME280;54941;52.220;104.306;2023-04-06T11:38:29;65906.28;;;-142.07;100.00
68141;BME280;54941;52.220;104.306;2023-04-06T11:40:56;65906.28;;;-142.07;100.00
68141;BME280;54941;52.220;104.306;2023-04-06T11:43:27;65906.28;;;-142.07;100.00
68141;BME280;54941;52.220;104.306;2023-04-06T11:46:00;65906.28;;;-142.07;100.00
68141;BME280;54941;52.220;104.306;2023-04-06T11:48:29;65906.28;;;-142.07;100.00
68141;BME280;54941;52.220;104.306;2023-04-06T11:50:56;65906.28;;;-142.07;100.00
68141;BME280;54941;52.220;104.306;2023-04-06T11:53:22;65906.28;;;-142.07;100.00
68141;BME280;54941;52.220;104.306;2023-04-06T11:55:51;65906.28;;;-142.07;100.00
68141;BME280;54941;52.220;104.306;2023-04-06T11:58:17;65906.28;;;-142.07;100.00
68141;BME280;54941;52.220;104.306;2023-04-06T12:00:46;65906.28;;;-142.07;100.00
68141;BME280;54941;52.220;104.306;2023-04-06T12:03:13;65906.28;;;-142.07;100.00
68141;BME280;54941;52.220;104.306;2023-04-06T12:05:40;65906.28;;;-142.07;100.00
68141;BME280;54941;52.220;104.306;2023-04-06T12:08:07;65906.28;;;-142.07;100.00
68141;BME280;54941;52.220;104.306;2023-04-06T12:10:33;65906.28;;;-142.07;100.00
68141;BME280;54941;52.220;104.306;2023-04-06T12:12:59;65906.28;;;-142.07;100.00
68141;BME280;54941;52.220;104.306;2023-04-06T12:15:26;65906.28;;;-142.07;100.00
68141;BME280;54941;52.220;104.306;2023-04-06T12:17:54;65906.28;;;-142.07;100.00
68141;BME280;54941;52.220;104.306;2023-04-06T12:20:20;65906.28;;;-142.07;100.00
68141;BME280;54941;52.220;104.306;2023-04-06T12:22:49;65906.28;;;-142.07;100.00
68141;BME280;54941;52.220;104.306;2023-04-06T12:25:18;65906.28;;;-142.07;100.00
68141;BME280;54941;52.220;104.306;2023-04-06T12:27:44;65906.28;;;-142.07;100.00
68141;BME280;54941;52.220;104.306;2023-04-06T12:30:12;65906.28;;;-142.07;100.00
68141;BME280;54941;52.220;104.306;2023-04-06T12:32:38;65906.28;;;-142.07;100.00
68141;BME280;54941;52.220;104.306;2023-04-06T12:35:06;65906.28;;;-142.07;100.00
68141;BME280;54941;52.220;104.306;2023-04-06T12:37:33;65906.28;;;-142.07;100.00
68141;BME280;54941;52.220;104.306;2023-04-06T12:39:59;65906.28;;;-142.07;100.00
68141;BME280;54941;52.220;104.306;2023-04-06T12:42:26;65906.28;;;-142.07;100.00